sensor_id;sensor_type;location;lat;lon;timestamp;temperature;humidity
18450;DHT22;9354;50.194;7.690;2023-02-02T00:00:31;5.80;99.90
18450;DHT22;9354;50.194;7.690;2023-02-02T00:03:00;5.80;99.90
18450;DHT22;9354;50.194;7.690;2023-02-02T00:05:27;5.80;99.90
18450;DHT22;9354;50.194;7.690;2023-02-02T00:07:55;5.80;99.90
18450;DHT22;9354;50.194;7.690;2023-02-02T00:10:22;5.80;99.90
18450;DHT22;9354;50.194;7.690;2023-02-02T00:12:50;5.80;99.90
18450;DHT22;9354;50.194;7.690;2023-02-02T00:15:17;5.80;99.90
18450;DHT22;9354;50.194;7.690;2023-02-02T00:17:44;5.80;99.90
18450;DHT22;9354;50.194;7.690;2023-02-02T00:20:13;5.80;99.90
18450;DHT22;9354;50.194;7.690;2023-02-02T00:22:40;5.80;99.90
18450;DHT22;9354;50.194;7.690;2023-02-02T00:25:08;5.80;99.90
18450;DHT22;9354;50.194;7.690;2023-02-02T00:27:36;5.80;99.90
18450;DHT22;9354;50.194;7.690;2023-02-02T00:30:04;5.80;99.90
18450;DHT22;9354;50.194;7.690;2023-02-02T00:32:31;5.80;99.90
18450;DHT22;9354;50.194;7.690;2023-02-02T00:34:59;5.80;99.90
18450;DHT22;9354;50.194;7.690;2023-02-02T00:37:28;5.80;99.90
18450;DHT22;9354;50.194;7.690;2023-02-02T00:39:55;5.70;99.90
18450;DHT22;9354;50.194;7.690;2023-02-02T00:42:22;5.80;99.90
18450;DHT22;9354;50.194;7.690;2023-02-02T00:44:49;5.70;99.90
18450;DHT22;9354;50.194;7.690;2023-02-02T00:47:44;5.70;99.90
18450;DHT22;9354;50.194;7.690;2023-02-02T00:50:14;5.80;99.90
18450;DHT22;9354;50.194;7.690;2023-02-02T00:52:43;5.80;99.90
18450;DHT22;9354;50.194;7.690;2023-02-02T00:55:11;5.70;99.90
18450;DHT22;9354;50.194;7.690;2023-02-02T00:57:39;5.70;99.90
18450;DHT22;9354;50.194;7.690;2023-02-02T01:00:12;5.70;99.90
18450;DHT22;9354;50.194;7.690;2023-02-02T01:02:40;5.70;99.90
18450;DHT22;9354;50.194;7.690;2023-02-02T01:05:08;5.70;99.90
18450;DHT22;9354;50.194;7.690;2023-02-02T01:07:35;5.70;99.90
18450;DHT22;9354;50.194;7.690;2023-02-02T01:10:06;5.70;99.90
18450;DHT22;9354;50.194;7.690;2023-02-02T01:12:34;5.70;99.90
18450;DHT22;9354;50.194;7.690;2023-02-02T01:15:02;5.70;99.90
18450;DHT22;9354;50.194;7.690;2023-02-02T01:17:29;5.70;99.90
18450;DHT22;9354;50.194;7.690;2023-02-02T01:19:57;5.70;99.90
18450;DHT22;9354;50.194;7.690;2023-02-02T01:22:24;5.80;99.90
18450;DHT22;9354;50.194;7.690;2023-02-02T01:24:52;5.80;99.90
18450;DHT22;9354;50.194;7.690;2023-02-02T01:27:20;5.80;99.90
18450;DHT22;9354;50.194;7.690;2023-02-02T01:29:48;5.80;99.90
18450;DHT22;9354;50.194;7.690;2023-02-02T01:32:15;5.80;99.90
18450;DHT22;9354;50.194;7.690;2023-02-02T01:34:42;5.80;99.90
18450;DHT22;9354;50.194;7.690;2023-02-02T01:37:10;5.80;99.90
18450;DHT22;9354;50.194;7.690;2023-02-02T01:39:37;5.80;99.90
18450;DHT22;9354;50.194;7.690;2023-02-02T01:42:11;5.80;99.90
18450;DHT22;9354;50.194;7.690;2023-02-02T01:45:17;5.80;99.90
18450;DHT22;9354;50.194;7.690;2023-02-02T01:47:48;5.80;99.90
18450;DHT22;9354;50.194;7.690;2023-02-02T01:50:17;5.80;99.90
18450;DHT22;9354;50.194;7.690;2023-02-02T01:52:47;5.90;99.90
18450;DHT22;9354;50.194;7.690;2023-02-02T01:55:21;5.90;99.90
18450;DHT22;9354;50.194;7.690;2023-02-02T01:57:52;5.80;99.90
18450;DHT22;9354;50.194;7.690;2023-02-02T02:00:22;5.90;99.90
18450;DHT22;9354;50.194;7.690;2023-02-02T02:02:57;5.90;99.90
18450;DHT22;9354;50.194;7.690;2023-02-02T02:05:28;5.90;99.90
18450;DHT22;9354;50.194;7.690;2023-02-02T02:08:03;5.80;99.90
18450;DHT22;9354;50.194;7.690;2023-02-02T02:10:31;5.80;99.90
18450;DHT22;9354;50.194;7.690;2023-02-02T02:12:59;5.80;99.90
18450;DHT22;9354;50.194;7.690;2023-02-02T02:15:32;5.90;99.90
18450;DHT22;9354;50.194;7.690;2023-02-02T02:18:28;5.80;99.90
18450;DHT22;9354;50.194;7.690;2023-02-02T02:27:54;5.90;99.90
18450;DHT22;9354;50.194;7.690;2023-02-02T02:30:37;5.80;99.90
18450;DHT22;9354;50.194;7.690;2023-02-02T02:33:14;5.90;99.90
18450;DHT22;9354;50.194;7.690;2023-02-02T02:35:48;5.90;99.90
18450;DHT22;9354;50.194;7.690;2023-02-02T02:38:28;5.90;99.90
18450;DHT22;9354;50.194;7.690;2023-02-02T02:41:00;5.90;99.90
18450;DHT22;9354;50.194;7.690;2023-02-02T02:43:31;5.80;99.90
18450;DHT22;9354;50.194;7.690;2023-02-02T02:46:01;5.90;99.90
18450;DHT22;9354;50.194;7.690;2023-02-02T02:48:31;5.90;99.90
18450;DHT22;9354;50.194;7.690;2023-02-02T02:51:05;5.90;99.90
18450;DHT22;9354;50.194;7.690;2023-02-02T02:53:34;5.90;99.90
18450;DHT22;9354;50.194;7.690;2023-02-02T02:56:08;5.90;99.90
18450;DHT22;9354;50.194;7.690;2023-02-02T02:58:44;5.90;99.90
18450;DHT22;9354;50.194;7.690;2023-02-02T03:01:20;5.90;99.90
18450;DHT22;9354;50.194;7.690;2023-02-02T03:04:03;5.90;99.90
18450;DHT22;9354;50.194;7.690;2023-02-02T03:06:40;5.90;99.90
18450;DHT22;9354;50.194;7.690;2023-02-02T03:09:13;5.90;99.90
18450;DHT22;9354;50.194;7.690;2023-02-02T03:11:43;5.90;99.90
18450;DHT22;9354;50.194;7.690;2023-02-02T03:14:10;5.90;99.90
18450;DHT22;9354;50.194;7.690;2023-02-02T03:16:38;5.90;99.90
18450;DHT22;9354;50.194;7.690;2023-02-02T03:19:07;5.90;99.90
18450;DHT22;9354;50.194;7.690;2023-02-02T03:21:35;5.90;99.90
18450;DHT22;9354;50.194;7.690;2023-02-02T03:24:02;5.90;99.90
18450;DHT22;9354;50.194;7.690;2023-02-02T03:26:30;5.90;99.90
18450;DHT22;9354;50.194;7.690;2023-02-02T03:28:57;5.90;99.90
18450;DHT22;9354;50.194;7.690;2023-02-02T03:31:26;5.90;99.90
18450;DHT22;9354;50.194;7.690;2023-02-02T03:33:54;5.90;99.90
18450;DHT22;9354;50.194;7.690;2023-02-02T03:36:23;5.90;99.90
18450;DHT22;9354;50.194;7.690;2023-02-02T03:38:50;5.90;99.90
18450;DHT22;9354;50.194;7.690;2023-02-02T03:41:18;5.90;99.90
18450;DHT22;9354;50.194;7.690;2023-02-02T03:43:45;5.90;99.90
18450;DHT22;9354;50.194;7.690;2023-02-02T03:46:12;5.90;99.90
18450;DHT22;9354;50.194;7.690;2023-02-02T03:48:39;5.90;99.90
18450;DHT22;9354;50.194;7.690;2023-02-02T03:51:07;5.90;99.90
18450;DHT22;9354;50.194;7.690;2023-02-02T03:53:38;5.80;99.90
18450;DHT22;9354;50.194;7.690;2023-02-02T03:56:06;5.80;99.90
18450;DHT22;9354;50.194;7.690;2023-02-02T03:58:33;5.80;99.90
18450;DHT22;9354;50.194;7.690;2023-02-02T04:01:02;5.80;99.90
18450;DHT22;9354;50.194;7.690;2023-02-02T04:03:30;5.80;99.90
18450;DHT22;9354;50.194;7.690;2023-02-02T04:05:57;5.80;99.90
18450;DHT22;9354;50.194;7.690;2023-02-02T04:08:24;5.90;99.90
18450;DHT22;9354;50.194;7.690;2023-02-02T04:10:54;5.90;99.90
18450;DHT22;9354;50.194;7.690;2023-02-02T04:13:22;5.90;99.90
18450;DHT22;9354;50.194;7.690;2023-02-02T04:15:55;5.90;99.90
18450;DHT22;9354;50.194;7.690;2023-02-02T04:18:23;5.90;99.90
18450;DHT22;9354;50.194;7.690;2023-02-02T04:20:55;5.90;99.90
18450;DHT22;9354;50.194;7.690;2023-02-02T04:23:22;5.90;99.90
18450;DHT22;9354;50.194;7.690;2023-02-02T04:25:50;5.90;99.90
18450;DHT22;9354;50.194;7.690;2023-02-02T04:28:19;5.90;99.90
18450;DHT22;9354;50.194;7.690;2023-02-02T04:30:48;5.90;99.90
18450;DHT22;9354;50.194;7.690;2023-02-02T04:33:16;5.90;99.90
18450;DHT22;9354;50.194;7.690;2023-02-02T04:35:44;5.90;99.90
18450;DHT22;9354;50.194;7.690;2023-02-02T04:38:11;5.90;99.90
18450;DHT22;9354;50.194;7.690;2023-02-02T04:40:39;5.90;99.90
18450;DHT22;9354;50.194;7.690;2023-02-02T04:43:07;5.90;99.90
18450;DHT22;9354;50.194;7.690;2023-02-02T04:45:36;5.90;99.90
18450;DHT22;9354;50.194;7.690;2023-02-02T04:48:04;5.90;99.90
18450;DHT22;9354;50.194;7.690;2023-02-02T04:50:31;6.00;99.90
18450;DHT22;9354;50.194;7.690;2023-02-02T04:52:59;5.90;99.90
18450;DHT22;9354;50.194;7.690;2023-02-02T04:55:26;6.00;99.90
18450;DHT22;9354;50.194;7.690;2023-02-02T04:57:53;6.00;99.90
18450;DHT22;9354;50.194;7.690;2023-02-02T05:00:21;5.90;99.90
18450;DHT22;9354;50.194;7.690;2023-02-02T05:02:49;6.00;99.90
18450;DHT22;9354;50.194;7.690;2023-02-02T05:05:17;6.00;99.90
18450;DHT22;9354;50.194;7.690;2023-02-02T05:07:45;6.00;99.90
18450;DHT22;9354;50.194;7.690;2023-02-02T05:10:12;6.00;99.90
18450;DHT22;9354;50.194;7.690;2023-02-02T05:12:40;5.90;99.90
18450;DHT22;9354;50.194;7.690;2023-02-02T05:15:09;5.90;99.90
18450;DHT22;9354;50.194;7.690;2023-02-02T05:17:37;6.00;99.90
18450;DHT22;9354;50.194;7.690;2023-02-02T05:20:06;5.90;99.90
18450;DHT22;9354;50.194;7.690;2023-02-02T05:22:34;6.00;99.90
18450;DHT22;9354;50.194;7.690;2023-02-02T05:25:01;5.90;99.90
18450;DHT22;9354;50.194;7.690;2023-02-02T05:27:28;5.90;99.90
18450;DHT22;9354;50.194;7.690;2023-02-02T05:29:56;5.90;99.90
18450;DHT22;9354;50.194;7.690;2023-02-02T05:32:24;5.90;99.90
18450;DHT22;9354;50.194;7.690;2023-02-02T05:34:53;5.90;99.90
18450;DHT22;9354;50.194;7.690;2023-02-02T05:37:21;5.90;99.90
18450;DHT22;9354;50.194;7.690;2023-02-02T05:39:48;6.00;99.90
18450;DHT22;9354;50.194;7.690;2023-02-02T05:42:17;5.90;99.90
18450;DHT22;9354;50.194;7.690;2023-02-02T05:44:44;6.00;99.90
18450;DHT22;9354;50.194;7.690;2023-02-02T05:47:11;6.00;99.90
18450;DHT22;9354;50.194;7.690;2023-02-02T05:49:39;6.00;99.90
18450;DHT22;9354;50.194;7.690;2023-02-02T05:52:06;5.90;99.90
18450;DHT22;9354;50.194;7.690;2023-02-02T05:54:35;6.00;99.90
18450;DHT22;9354;50.194;7.690;2023-02-02T05:57:02;5.90;99.90
18450;DHT22;9354;50.194;7.690;2023-02-02T05:59:30;5.90;99.90
18450;DHT22;9354;50.194;7.690;2023-02-02T06:01:57;5.90;99.90
18450;DHT22;9354;50.194;7.690;2023-02-02T06:04:24;5.90;99.90
18450;DHT22;9354;50.194;7.690;2023-02-02T06:06:52;6.00;99.90
18450;DHT22;9354;50.194;7.690;2023-02-02T06:09:19;6.00;99.90
18450;DHT22;9354;50.194;7.690;2023-02-02T06:11:50;6.00;99.90
18450;DHT22;9354;50.194;7.690;2023-02-02T06:14:17;6.00;99.90
18450;DHT22;9354;50.194;7.690;2023-02-02T06:16:46;6.00;99.90
18450;DHT22;9354;50.194;7.690;2023-02-02T06:19:13;6.00;99.90
18450;DHT22;9354;50.194;7.690;2023-02-02T06:21:41;6.00;99.90
18450;DHT22;9354;50.194;7.690;2023-02-02T06:24:08;6.00;99.90
18450;DHT22;9354;50.194;7.690;2023-02-02T06:26:35;6.00;99.90
18450;DHT22;9354;50.194;7.690;2023-02-02T06:29:04;6.00;99.90
18450;DHT22;9354;50.194;7.690;2023-02-02T06:31:31;6.00;99.90
18450;DHT22;9354;50.194;7.690;2023-02-02T06:33:59;6.00;99.90
18450;DHT22;9354;50.194;7.690;2023-02-02T06:36:26;6.00;99.90
18450;DHT22;9354;50.194;7.690;2023-02-02T06:38:56;6.00;99.90
18450;DHT22;9354;50.194;7.690;2023-02-02T06:41:24;6.00;99.90
18450;DHT22;9354;50.194;7.690;2023-02-02T06:43:51;6.00;99.90
18450;DHT22;9354;50.194;7.690;2023-02-02T06:46:20;6.00;99.90
18450;DHT22;9354;50.194;7.690;2023-02-02T06:48:47;6.00;99.90
18450;DHT22;9354;50.194;7.690;2023-02-02T06:51:15;6.00;99.90
18450;DHT22;9354;50.194;7.690;2023-02-02T06:53:42;6.00;99.90
18450;DHT22;9354;50.194;7.690;2023-02-02T06:56:11;6.00;99.90
18450;DHT22;9354;50.194;7.690;2023-02-02T06:58:39;6.00;99.90
18450;DHT22;9354;50.194;7.690;2023-02-02T07:01:07;6.00;99.90
18450;DHT22;9354;50.194;7.690;2023-02-02T07:03:37;6.00;99.90
18450;DHT22;9354;50.194;7.690;2023-02-02T07:06:12;6.00;99.90
18450;DHT22;9354;50.194;7.690;2023-02-02T07:08:40;6.00;99.90
18450;DHT22;9354;50.194;7.690;2023-02-02T07:11:08;6.00;99.90
18450;DHT22;9354;50.194;7.690;2023-02-02T07:13:36;6.00;99.90
18450;DHT22;9354;50.194;7.690;2023-02-02T07:16:04;6.00;99.90
18450;DHT22;9354;50.194;7.690;2023-02-02T07:18:32;6.00;99.90
18450;DHT22;9354;50.194;7.690;2023-02-02T07:21:03;6.00;99.90
18450;DHT22;9354;50.194;7.690;2023-02-02T07:23:32;6.00;99.90
18450;DHT22;9354;50.194;7.690;2023-02-02T07:26:00;6.00;99.90
18450;DHT22;9354;50.194;7.690;2023-02-02T07:28:28;6.00;99.90
18450;DHT22;9354;50.194;7.690;2023-02-02T07:30:56;6.00;99.90
18450;DHT22;9354;50.194;7.690;2023-02-02T07:33:23;6.00;99.90
18450;DHT22;9354;50.194;7.690;2023-02-02T07:35:50;6.00;99.90
18450;DHT22;9354;50.194;7.690;2023-02-02T07:38:20;6.00;99.90
18450;DHT22;9354;50.194;7.690;2023-02-02T07:40:47;6.00;99.90
18450;DHT22;9354;50.194;7.690;2023-02-02T07:43:14;6.00;99.90
18450;DHT22;9354;50.194;7.690;2023-02-02T07:45:44;6.00;99.90
18450;DHT22;9354;50.194;7.690;2023-02-02T07:48:11;6.00;99.90
18450;DHT22;9354;50.194;7.690;2023-02-02T07:50:39;6.00;99.90
18450;DHT22;9354;50.194;7.690;2023-02-02T07:53:06;6.00;99.90
18450;DHT22;9354;50.194;7.690;2023-02-02T07:55:35;6.00;99.90
18450;DHT22;9354;50.194;7.690;2023-02-02T07:58:02;6.00;99.90
18450;DHT22;9354;50.194;7.690;2023-02-02T08:00:29;6.00;99.90
18450;DHT22;9354;50.194;7.690;2023-02-02T08:02:56;6.00;99.90
18450;DHT22;9354;50.194;7.690;2023-02-02T08:05:24;6.00;99.90
18450;DHT22;9354;50.194;7.690;2023-02-02T08:07:51;6.00;99.90
18450;DHT22;9354;50.194;7.690;2023-02-02T08:10:19;6.00;99.90
18450;DHT22;9354;50.194;7.690;2023-02-02T08:12:47;6.00;99.90
18450;DHT22;9354;50.194;7.690;2023-02-02T08:15:15;6.00;99.90
18450;DHT22;9354;50.194;7.690;2023-02-02T08:17:44;6.00;99.90
18450;DHT22;9354;50.194;7.690;2023-02-02T08:20:15;6.10;99.90
18450;DHT22;9354;50.194;7.690;2023-02-02T08:22:42;6.10;99.90
18450;DHT22;9354;50.194;7.690;2023-02-02T08:25:09;6.10;99.90
18450;DHT22;9354;50.194;7.690;2023-02-02T08:27:37;6.10;99.90
18450;DHT22;9354;50.194;7.690;2023-02-02T08:30:06;6.10;99.90
18450;DHT22;9354;50.194;7.690;2023-02-02T08:32:34;6.10;99.90
18450;DHT22;9354;50.194;7.690;2023-02-02T08:35:01;6.20;99.90
18450;DHT22;9354;50.194;7.690;2023-02-02T08:37:29;6.20;99.90
18450;DHT22;9354;50.194;7.690;2023-02-02T08:39:56;6.20;99.90
18450;DHT22;9354;50.194;7.690;2023-02-02T08:42:24;6.20;99.90
18450;DHT22;9354;50.194;7.690;2023-02-02T08:44:51;6.30;99.90
18450;DHT22;9354;50.194;7.690;2023-02-02T08:47:23;6.30;99.90
18450;DHT22;9354;50.194;7.690;2023-02-02T08:49:50;6.30;99.90
18450;DHT22;9354;50.194;7.690;2023-02-02T08:52:17;6.30;99.90
18450;DHT22;9354;50.194;7.690;2023-02-02T08:54:44;6.30;99.90
18450;DHT22;9354;50.194;7.690;2023-02-02T08:57:12;6.30;99.90
18450;DHT22;9354;50.194;7.690;2023-02-02T08:59:39;6.30;99.90
18450;DHT22;9354;50.194;7.690;2023-02-02T09:02:08;6.30;99.90
18450;DHT22;9354;50.194;7.690;2023-02-02T09:04:37;6.30;99.90
18450;DHT22;9354;50.194;7.690;2023-02-02T09:07:05;6.40;99.90
18450;DHT22;9354;50.194;7.690;2023-02-02T09:09:32;6.40;99.90
18450;DHT22;9354;50.194;7.690;2023-02-02T09:12:00;6.40;99.90
18450;DHT22;9354;50.194;7.690;2023-02-02T09:14:28;6.40;99.90
18450;DHT22;9354;50.194;7.690;2023-02-02T09:16:55;6.40;99.90
18450;DHT22;9354;50.194;7.690;2023-02-02T09:19:23;6.40;99.90
18450;DHT22;9354;50.194;7.690;2023-02-02T09:21:51;6.40;99.90
18450;DHT22;9354;50.194;7.690;2023-02-02T09:24:19;6.50;99.90
18450;DHT22;9354;50.194;7.690;2023-02-02T09:26:46;6.40;99.90
18450;DHT22;9354;50.194;7.690;2023-02-02T09:29:15;6.40;99.90
18450;DHT22;9354;50.194;7.690;2023-02-02T09:31:42;6.40;99.90
18450;DHT22;9354;50.194;7.690;2023-02-02T09:34:11;6.40;99.90
18450;DHT22;9354;50.194;7.690;2023-02-02T09:36:40;6.50;99.90
18450;DHT22;9354;50.194;7.690;2023-02-02T09:39:11;6.50;99.90
18450;DHT22;9354;50.194;7.690;2023-02-02T09:42:04;6.50;99.90
18450;DHT22;9354;50.194;7.690;2023-02-02T09:44:55;6.50;99.90
18450;DHT22;9354;50.194;7.690;2023-02-02T09:47:27;6.50;99.90
18450;DHT22;9354;50.194;7.690;2023-02-02T09:50:02;6.50;99.90
18450;DHT22;9354;50.194;7.690;2023-02-02T09:52:37;6.50;99.90
18450;DHT22;9354;50.194;7.690;2023-02-02T09:55:13;6.50;99.90
18450;DHT22;9354;50.194;7.690;2023-02-02T09:57:44;6.50;99.90
18450;DHT22;9354;50.194;7.690;2023-02-02T10:00:23;6.50;99.90
18450;DHT22;9354;50.194;7.690;2023-02-02T10:02:57;6.50;99.90
18450;DHT22;9354;50.194;7.690;2023-02-02T10:05:30;6.60;99.90
18450;DHT22;9354;50.194;7.690;2023-02-02T10:08:00;6.60;99.90
18450;DHT22;9354;50.194;7.690;2023-02-02T10:10:34;6.60;99.90
18450;DHT22;9354;50.194;7.690;2023-02-02T10:13:10;6.60;99.90
18450;DHT22;9354;50.194;7.690;2023-02-02T10:15:41;6.60;99.90
18450;DHT22;9354;50.194;7.690;2023-02-02T10:18:16;6.60;99.90
18450;DHT22;9354;50.194;7.690;2023-02-02T10:20:49;6.70;99.90
18450;DHT22;9354;50.194;7.690;2023-02-02T10:23:22;6.70;99.90
18450;DHT22;9354;50.194;7.690;2023-02-02T10:25:55;6.70;99.90
18450;DHT22;9354;50.194;7.690;2023-02-02T10:28:35;6.70;99.90
18450;DHT22;9354;50.194;7.690;2023-02-02T10:31:15;6.80;99.90
18450;DHT22;9354;50.194;7.690;2023-02-02T10:33:53;6.90;99.90
18450;DHT22;9354;50.194;7.690;2023-02-02T10:36:30;6.90;99.90
18450;DHT22;9354;50.194;7.690;2023-02-02T10:39:06;6.90;99.90
18450;DHT22;9354;50.194;7.690;2023-02-02T10:41:42;6.90;99.90
18450;DHT22;9354;50.194;7.690;2023-02-02T10:44:19;7.00;99.90
18450;DHT22;9354;50.194;7.690;2023-02-02T10:46:52;7.00;99.90
18450;DHT22;9354;50.194;7.690;2023-02-02T10:49:25;7.00;99.90
18450;DHT22;9354;50.194;7.690;2023-02-02T10:51:57;7.00;99.90
18450;DHT22;9354;50.194;7.690;2023-02-02T10:54:48;7.00;99.90
18450;DHT22;9354;50.194;7.690;2023-02-02T10:57:31;7.00;99.90
18450;DHT22;9354;50.194;7.690;2023-02-02T11:00:04;7.10;99.90
18450;DHT22;9354;50.194;7.690;2023-02-02T11:02:34;7.00;99.90
18450;DHT22;9354;50.194;7.690;2023-02-02T11:05:02;7.10;99.90
18450;DHT22;9354;50.194;7.690;2023-02-02T11:07:47;7.10;99.90
18450;DHT22;9354;50.194;7.690;2023-02-02T11:10:15;7.10;99.90
18450;DHT22;9354;50.194;7.690;2023-02-02T11:12:45;7.10;99.90
18450;DHT22;9354;50.194;7.690;2023-02-02T11:15:26;7.10;99.90
18450;DHT22;9354;50.194;7.690;2023-02-02T11:17:54;7.10;99.90
18450;DHT22;9354;50.194;7.690;2023-02-02T11:20:31;7.20;99.90
18450;DHT22;9354;50.194;7.690;2023-02-02T11:23:01;7.20;99.90
18450;DHT22;9354;50.194;7.690;2023-02-02T11:25:30;7.20;99.90
18450;DHT22;9354;50.194;7.690;2023-02-02T11:28:09;7.20;99.90
18450;DHT22;9354;50.194;7.690;2023-02-02T11:30:39;7.20;99.90
18450;DHT22;9354;50.194;7.690;2023-02-02T11:33:25;7.20;99.90
18450;DHT22;9354;50.194;7.690;2023-02-02T11:35:55;7.30;99.90
18450;DHT22;9354;50.194;7.690;2023-02-02T11:38:23;7.30;99.90
18450;DHT22;9354;50.194;7.690;2023-02-02T11:40:56;7.30;99.90
18450;DHT22;9354;50.194;7.690;2023-02-02T11:43:31;7.40;99.90
18450;DHT22;9354;50.194;7.690;2023-02-02T11:46:01;7.40;99.90
18450;DHT22;9354;50.194;7.690;2023-02-02T11:48:31;7.40;99.90
18450;DHT22;9354;50.194;7.690;2023-02-02T11:51:01;7.50;99.90
18450;DHT22;9354;50.194;7.690;2023-02-02T11:53:32;7.50;99.90
18450;DHT22;9354;50.194;7.690;2023-02-02T11:56:05;7.50;99.90
18450;DHT22;9354;50.194;7.690;2023-02-02T11:58:44;7.50;99.90
18450;DHT22;9354;50.194;7.690;2023-02-02T12:01:23;7.50;99.90
18450;DHT22;9354;50.194;7.690;2023-02-02T12:03:52;7.50;99.90
18450;DHT22;9354;50.194;7.690;2023-02-02T12:06:22;7.50;99.90
18450;DHT22;9354;50.194;7.690;2023-02-02T12:08:53;7.50;99.90
18450;DHT22;9354;50.194;7.690;2023-02-02T12:11:33;7.50;99.90
18450;DHT22;9354;50.194;7.690;2023-02-02T12:14:15;7.50;99.90
18450;DHT22;9354;50.194;7.690;2023-02-02T12:17:05;7.50;99.90
18450;DHT22;9354;50.194;7.690;2023-02-02T12:19:48;7.50;99.90
18450;DHT22;9354;50.194;7.690;2023-02-02T12:22:40;7.50;99.90
18450;DHT22;9354;50.194;7.690;2023-02-02T12:25:35;7.50;99.90
18450;DHT22;9354;50.194;7.690;2023-02-02T12:28:12;7.50;99.90
18450;DHT22;9354;50.194;7.690;2023-02-02T12:30:52;7.50;99.90
18450;DHT22;9354;50.194;7.690;2023-02-02T12:33:30;7.50;99.90
18450;DHT22;9354;50.194;7.690;2023-02-02T12:36:22;7.50;99.90
18450;DHT22;9354;50.194;7.690;2023-02-02T12:39:12;7.50;99.90
18450;DHT22;9354;50.194;7.690;2023-02-02T12:44:47;7.50;99.90
18450;DHT22;9354;50.194;7.690;2023-02-02T12:47:25;7.50;99.90
18450;DHT22;9354;50.194;7.690;2023-02-02T12:50:12;7.50;99.90
18450;DHT22;9354;50.194;7.690;2023-02-02T12:52:54;7.50;99.90
18450;DHT22;9354;50.194;7.690;2023-02-02T12:55:34;7.50;99.90
18450;DHT22;9354;50.194;7.690;2023-02-02T12:58:12;7.50;99.90
18450;DHT22;9354;50.194;7.690;2023-02-02T13:01:06;7.50;99.90
18450;DHT22;9354;50.194;7.690;2023-02-02T13:03:50;7.50;99.90
18450;DHT22;9354;50.194;7.690;2023-02-02T13:06:36;7.50;99.90
18450;DHT22;9354;50.194;7.690;2023-02-02T13:09:12;7.50;99.90
18450;DHT22;9354;50.194;7.690;2023-02-02T13:11:41;7.50;99.90
18450;DHT22;9354;50.194;7.690;2023-02-02T13:14:13;7.50;99.90
18450;DHT22;9354;50.194;7.690;2023-02-02T13:16:45;7.50;99.90
18450;DHT22;9354;50.194;7.690;2023-02-02T13:19:20;7.60;99.90
18450;DHT22;9354;50.194;7.690;2023-02-02T13:21:50;7.60;99.90
18450;DHT22;9354;50.194;7.690;2023-02-02T13:24:23;7.60;99.90
18450;DHT22;9354;50.194;7.690;2023-02-02T13:26:51;7.60;99.90
18450;DHT22;9354;50.194;7.690;2023-02-02T13:29:28;7.70;99.90
18450;DHT22;9354;50.194;7.690;2023-02-02T13:32:00;7.70;99.90
18450;DHT22;9354;50.194;7.690;2023-02-02T13:34:38;7.70;99.90
18450;DHT22;9354;50.194;7.690;2023-02-02T13:37:12;7.80;99.90
18450;DHT22;9354;50.194;7.690;2023-02-02T13:39:46;7.80;99.90
18450;DHT22;9354;50.194;7.690;2023-02-02T13:42:24;7.80;99.90
18450;DHT22;9354;50.194;7.690;2023-02-02T13:44:56;7.90;99.90
18450;DHT22;9354;50.194;7.690;2023-02-02T13:47:29;7.80;99.90
18450;DHT22;9354;50.194;7.690;2023-02-02T13:50:04;7.90;99.90
18450;DHT22;9354;50.194;7.690;2023-02-02T13:52:48;7.90;99.90
18450;DHT22;9354;50.194;7.690;2023-02-02T13:55:30;7.90;99.90
18450;DHT22;9354;50.194;7.690;2023-02-02T13:58:33;7.90;99.90
18450;DHT22;9354;50.194;7.690;2023-02-02T14:01:06;7.90;99.90
18450;DHT22;9354;50.194;7.690;2023-02-02T14:03:36;7.90;99.90
18450;DHT22;9354;50.194;7.690;2023-02-02T14:06:09;7.90;99.90
18450;DHT22;9354;50.194;7.690;2023-02-02T14:08:43;7.90;99.90
18450;DHT22;9354;50.194;7.690;2023-02-02T14:11:20;7.90;99.90
18450;DHT22;9354;50.194;7.690;2023-02-02T14:13:50;7.90;99.90
18450;DHT22;9354;50.194;7.690;2023-02-02T14:16:45;7.90;99.90
18450;DHT22;9354;50.194;7.690;2023-02-02T14:19:14;7.90;99.90
18450;DHT22;9354;50.194;7.690;2023-02-02T14:22:01;7.90;99.90
18450;DHT22;9354;50.194;7.690;2023-02-02T14:24:47;7.90;99.90
18450;DHT22;9354;50.194;7.690;2023-02-02T14:30:30;7.90;99.90
18450;DHT22;9354;50.194;7.690;2023-02-02T14:33:36;7.90;99.90
18450;DHT22;9354;50.194;7.690;2023-02-02T14:36:12;7.90;99.90
18450;DHT22;9354;50.194;7.690;2023-02-02T14:39:10;7.90;99.90
18450;DHT22;9354;50.194;7.690;2023-02-02T14:42:12;7.80;99.90
18450;DHT22;9354;50.194;7.690;2023-02-02T14:45:15;7.80;99.90
18450;DHT22;9354;50.194;7.690;2023-02-02T14:47:50;7.80;99.90
18450;DHT22;9354;50.194;7.690;2023-02-02T14:50:24;7.80;99.90
18450;DHT22;9354;50.194;7.690;2023-02-02T14:52:59;7.80;99.90
18450;DHT22;9354;50.194;7.690;2023-02-02T14:55:29;7.80;99.90
18450;DHT22;9354;50.194;7.690;2023-02-02T14:57:59;7.80;99.90
18450;DHT22;9354;50.194;7.690;2023-02-02T15:00:28;7.80;99.90
18450;DHT22;9354;50.194;7.690;2023-02-02T15:03:47;7.80;99.90
18450;DHT22;9354;50.194;7.690;2023-02-02T15:06:26;7.80;99.90
18450;DHT22;9354;50.194;7.690;2023-02-02T15:12:31;7.80;99.90
18450;DHT22;9354;50.194;7.690;2023-02-02T15:15:19;7.80;99.90
18450;DHT22;9354;50.194;7.690;2023-02-02T15:18:01;7.80;99.90
18450;DHT22;9354;50.194;7.690;2023-02-02T15:20:35;7.80;99.90
18450;DHT22;9354;50.194;7.690;2023-02-02T15:23:06;7.80;99.90
18450;DHT22;9354;50.194;7.690;2023-02-02T15:25:47;7.70;99.90
18450;DHT22;9354;50.194;7.690;2023-02-02T15:28:21;7.80;99.90
18450;DHT22;9354;50.194;7.690;2023-02-02T15:30:53;7.80;99.90
18450;DHT22;9354;50.194;7.690;2023-02-02T15:33:27;7.70;99.90
18450;DHT22;9354;50.194;7.690;2023-02-02T15:35:57;7.70;99.90
18450;DHT22;9354;50.194;7.690;2023-02-02T15:38:31;7.80;99.90
18450;DHT22;9354;50.194;7.690;2023-02-02T15:41:03;7.80;99.90
18450;DHT22;9354;50.194;7.690;2023-02-02T15:43:33;7.80;99.90
18450;DHT22;9354;50.194;7.690;2023-02-02T15:46:03;7.80;99.90
18450;DHT22;9354;50.194;7.690;2023-02-02T15:48:32;7.80;99.90
18450;DHT22;9354;50.194;7.690;2023-02-02T15:51:04;7.80;99.90
18450;DHT22;9354;50.194;7.690;2023-02-02T15:53:44;7.80;99.90
18450;DHT22;9354;50.194;7.690;2023-02-02T15:56:27;7.80;99.90
18450;DHT22;9354;50.194;7.690;2023-02-02T15:58:58;7.80;99.90
18450;DHT22;9354;50.194;7.690;2023-02-02T16:01:26;7.70;99.90
18450;DHT22;9354;50.194;7.690;2023-02-02T16:04:04;7.80;99.90
18450;DHT22;9354;50.194;7.690;2023-02-02T16:06:41;7.70;99.90
18450;DHT22;9354;50.194;7.690;2023-02-02T16:09:20;7.80;99.90
18450;DHT22;9354;50.194;7.690;2023-02-02T16:11:49;7.70;99.90
18450;DHT22;9354;50.194;7.690;2023-02-02T16:14:18;7.80;99.90
18450;DHT22;9354;50.194;7.690;2023-02-02T16:16:46;7.70;99.90
18450;DHT22;9354;50.194;7.690;2023-02-02T16:19:18;7.70;99.90
18450;DHT22;9354;50.194;7.690;2023-02-02T16:21:52;7.80;99.90
18450;DHT22;9354;50.194;7.690;2023-02-02T16:24:23;7.80;99.90
18450;DHT22;9354;50.194;7.690;2023-02-02T16:26:53;7.70;99.90
18450;DHT22;9354;50.194;7.690;2023-02-02T16:29:23;7.80;99.90
18450;DHT22;9354;50.194;7.690;2023-02-02T16:31:53;7.70;99.90
18450;DHT22;9354;50.194;7.690;2023-02-02T16:34:42;7.70;99.90
18450;DHT22;9354;50.194;7.690;2023-02-02T16:37:13;7.70;99.90
18450;DHT22;9354;50.194;7.690;2023-02-02T16:39:41;7.70;99.90
18450;DHT22;9354;50.194;7.690;2023-02-02T16:42:09;7.70;99.90
18450;DHT22;9354;50.194;7.690;2023-02-02T16:44:39;7.70;99.90
18450;DHT22;9354;50.194;7.690;2023-02-02T16:47:33;7.70;99.90
18450;DHT22;9354;50.194;7.690;2023-02-02T16:50:28;7.70;99.90